Wetterdaten: Montag, 03.09.2012
Datum Zeit Temperatur Luftfeuchte Luftdruck Regen Wind Richtung Richtung Sonnenschein Taupunkt Windchill
03.09.2012 00:03 12,1 C 63 % 1024,7 hPa 0,0 l/m 0,0 km/h (0 Bft) W-SW 255 0 min 5,3 C 12,1 C
03.09.2012 00:08 12,0 C 63 % 1024,7 hPa 0,0 l/m 0,0 km/h (0 Bft) W-SW 255 0 min 5,2 C 12,0 C
03.09.2012 00:13 11,9 C 63 % 1024,7 hPa 0,0 l/m 0,0 km/h (0 Bft) W-SW 255 0 min 5,1 C 11,9 C
03.09.2012 00:19 11,8 C 64 % 1024,7 hPa 0,0 l/m 0,0 km/h (0 Bft) W-SW 255 0 min 5,2 C 11,8 C
03.09.2012 00:24 11,8 C 64 % 1024,7 hPa 0,0 l/m 0,0 km/h (0 Bft) W-SW 255 0 min 5,2 C 11,8 C
03.09.2012 00:29 11,8 C 64 % 1024,7 hPa 0,0 l/m 0,0 km/h (0 Bft) W-SW 255 0 min 5,2 C 11,8 C
03.09.2012 00:34 11,8 C 64 % 1024,7 hPa 0,0 l/m 0,0 km/h (0 Bft) W-SW 255 0 min 5,2 C 11,8 C
03.09.2012 00:38 11,7 C 64 % 1024,7 hPa 0,0 l/m 0,0 km/h (0 Bft) W-SW 255 0 min 5,1 C 11,7 C
03.09.2012 00:43 11,7 C 64 % 1024,7 hPa 0,0 l/m 0,0 km/h (0 Bft) W-SW 255 0 min 5,1 C 11,7 C
03.09.2012 00:48 11,7 C 65 % 1024,7 hPa 0,0 l/m 0,0 km/h (0 Bft) W-SW 255 0 min 5,3 C 11,7 C
03.09.2012 00:54 11,5 C 65 % 1024,7 hPa 0,0 l/m 0,0 km/h (0 Bft) W-SW 255 0 min 5,2 C 11,5 C
03.09.2012 00:59 11,5 C 65 % 1024,7 hPa 0,0 l/m 0,0 km/h (0 Bft) W-SW 255 0 min 5,2 C 11,5 C
03.09.2012 01:04 11,4 C 65 % 1024,7 hPa 0,0 l/m 0,0 km/h (0 Bft) W-SW 255 0 min 5,1 C 11,4 C
03.09.2012 01:09 11,3 C 65 % 1024,7 hPa 0,0 l/m 0,0 km/h (0 Bft) W-SW 255 0 min 5,0 C 11,3 C
03.09.2012 01:14 11,2 C 66 % 1024,7 hPa 0,0 l/m 0,1 km/h (0 Bft) W 265 0 min 5,1 C 11,2 C
03.09.2012 01:18 11,2 C 67 % 1024,7 hPa 0,0 l/m 0,1 km/h (0 Bft) NW 315 0 min 5,3 C 11,2 C
03.09.2012 01:23 11,2 C 69 % 1024,7 hPa 0,0 l/m 4,2 km/h (1 Bft) W-NW 290 0 min 5,7 C 11,2 C
03.09.2012 01:28 11,2 C 69 % 1024,7 hPa 0,0 l/m 3,8 km/h (1 Bft) W 280 0 min 5,7 C 11,2 C
03.09.2012 01:34 11,3 C 70 % 1024,7 hPa 0,0 l/m 5,8 km/h (2 Bft) NW 305 0 min 6,0 C 11,3 C
03.09.2012 01:39 11,3 C 71 % 1024,7 hPa 0,0 l/m 0,1 km/h (0 Bft) W-NW 290 0 min 6,2 C 11,3 C
03.09.2012 01:44 11,2 C 72 % 1024,7 hPa 0,0 l/m 1,3 km/h (1 Bft) W 265 0 min 6,3 C 11,2 C
03.09.2012 01:49 11,1 C 73 % 1024,7 hPa 0,0 l/m 0,0 km/h (0 Bft) W 280 0 min 6,4 C 11,1 C
03.09.2012 01:53 11,1 C 73 % 1024,7 hPa 0,0 l/m 0,5 km/h (0 Bft) W-NW 300 0 min 6,4 C 11,1 C
03.09.2012 01:58 11,1 C 72 % 1024,7 hPa 0,0 l/m 0,7 km/h (0 Bft) W 270 0 min 6,2 C 11,1 C
03.09.2012 02:03 11,1 C 72 % 1024,7 hPa 0,0 l/m 0,3 km/h (0 Bft) W 260 0 min 6,2 C 11,1 C
03.09.2012 02:08 11,1 C 72 % 1024,7 hPa 0,0 l/m 0,0 km/h (0 Bft) W-SW 255 0 min 6,2 C 11,1 C
03.09.2012 02:13 11,1 C 71 % 1024,7 hPa 0,0 l/m 0,0 km/h (0 Bft) W 270 0 min 6,0 C 11,1 C
03.09.2012 02:18 11,0 C 71 % 1024,7 hPa 0,0 l/m 0,0 km/h (0 Bft) W 265 0 min 5,9 C 11,0 C
03.09.2012 02:23 10,8 C 71 % 1024,7 hPa 0,0 l/m 0,0 km/h (0 Bft) W 265 0 min 5,8 C 10,8 C
03.09.2012 02:28 10,8 C 71 % 1024,7 hPa 0,0 l/m 0,0 km/h (0 Bft) W-SW 255 0 min 5,8 C 10,8 C
03.09.2012 02:33 10,5 C 70 % 1024,7 hPa 0,0 l/m 0,0 km/h (0 Bft) W-SW 255 0 min 5,3 C 10,5 C
03.09.2012 02:38 10,5 C 71 % 1024,7 hPa 0,0 l/m 0,0 km/h (0 Bft) W 270 0 min 5,5 C 10,5 C
03.09.2012 02:43 10,5 C 72 % 1024,7 hPa 0,0 l/m 3,9 km/h (1 Bft) W 275 0 min 5,7 C 10,5 C
03.09.2012 02:48 10,5 C 72 % 1024,7 hPa 0,0 l/m 0,2 km/h (0 Bft) W 265 0 min 5,7 C 10,5 C
03.09.2012 02:53 10,6 C 73 % 1024,7 hPa 0,0 l/m 0,0 km/h (0 Bft) W 260 0 min 6,0 C 10,6 C
03.09.2012 02:58 10,6 C 72 % 1024,7 hPa 0,0 l/m 0,0 km/h (0 Bft) W-NW 285 0 min 5,8 C 10,6 C
03.09.2012 03:03 10,7 C 73 % 1024,7 hPa 0,0 l/m 0,3 km/h (0 Bft) W-NW 285 0 min 6,1 C 10,7 C
03.09.2012 03:08 10,7 C 75 % 1024,7 hPa 0,0 l/m 0,1 km/h (0 Bft) W 260 0 min 6,5 C 10,7 C
03.09.2012 03:13 10,7 C 74 % 1024,7 hPa 0,0 l/m 0,0 km/h (0 Bft) W-SW 250 0 min 6,3 C 10,7 C
03.09.2012 03:18 10,6 C 75 % 1024,7 hPa 0,0 l/m 0,0 km/h (0 Bft) W-SW 250 0 min 6,4 C 10,6 C
03.09.2012 03:23 10,4 C 74 % 1023,7 hPa 0,0 l/m 0,4 km/h (0 Bft) W-SW 255 0 min 6,0 C 10,4 C
03.09.2012 03:28 10,4 C 74 % 1023,7 hPa 0,0 l/m 0,7 km/h (0 Bft) W-SW 250 0 min 6,0 C 10,4 C
03.09.2012 03:33 10,3 C 74 % 1023,7 hPa 0,0 l/m 0,1 km/h (0 Bft) W-SW 250 0 min 5,9 C 10,3 C
03.09.2012 03:38 10,3 C 75 % 1023,7 hPa 0,0 l/m 0,1 km/h (0 Bft) W 275 0 min 6,1 C 10,3 C
03.09.2012 03:43 10,3 C 74 % 1023,7 hPa 0,0 l/m 0,0 km/h (0 Bft) W 270 0 min 5,9 C 10,3 C
03.09.2012 03:48 10,3 C 75 % 1023,7 hPa 0,0 l/m 0,3 km/h (0 Bft) W 275 0 min 6,1 C 10,3 C
03.09.2012 03:53 10,2 C 75 % 1023,7 hPa 0,0 l/m 5,6 km/h (1 Bft) W-NW 300 0 min 6,0 C 10,2 C
03.09.2012 03:58 10,2 C 76 % 1023,7 hPa 0,0 l/m 0,7 km/h (0 Bft) W 280 0 min 6,2 C 10,2 C
03.09.2012 04:03 10,2 C 76 % 1023,7 hPa 0,0 l/m 0,0 km/h (0 Bft) W 280 0 min 6,2 C 10,2 C
03.09.2012 04:09 10,2 C 75 % 1023,7 hPa 0,0 l/m 0,0 km/h (0 Bft) W 260 0 min 6,0 C 10,2 C
03.09.2012 04:14 10,0 C 74 % 1023,7 hPa 0,0 l/m 0,0 km/h (0 Bft) W 260 0 min 5,6 C 10,0 C
03.09.2012 04:19 9,9 C 75 % 1023,7 hPa 0,0 l/m 0,0 km/h (0 Bft) W 260 0 min 5,7 C 9,9 C
03.09.2012 04:24 9,8 C 75 % 1023,7 hPa 0,0 l/m 0,0 km/h (0 Bft) W 260 0 min 5,6 C 9,8 C
03.09.2012 04:29 9,7 C 75 % 1023,7 hPa 0,0 l/m 0,3 km/h (0 Bft) W 265 0 min 5,5 C 9,7 C
03.09.2012 04:34 9,7 C 75 % 1023,7 hPa 0,0 l/m 0,0 km/h (0 Bft) W 260 0 min 5,5 C 9,7 C
03.09.2012 04:39 9,7 C 75 % 1023,7 hPa 0,0 l/m 0,0 km/h (0 Bft) W 270 0 min 5,5 C 9,7 C
03.09.2012 04:44 9,6 C 74 % 1023,7 hPa 0,0 l/m 0,0 km/h (0 Bft) W 260 0 min 5,2 C 9,6 C
03.09.2012 04:49 9,5 C 75 % 1023,7 hPa 0,0 l/m 0,0 km/h (0 Bft) W 260 0 min 5,3 C 9,5 C
03.09.2012 04:54 9,5 C 75 % 1023,7 hPa 0,0 l/m 0,0 km/h (0 Bft) W 260 0 min 5,3 C 9,5 C
03.09.2012 04:59 9,4 C 74 % 1023,7 hPa 0,0 l/m 0,0 km/h (0 Bft) W 260 0 min 5,0 C 9,4 C
03.09.2012 05:04 9,2 C 74 % 1023,7 hPa 0,0 l/m 0,0 km/h (0 Bft) W 260 0 min 4,8 C 9,2 C
03.09.2012 05:09 9,1 C 74 % 1023,7 hPa 0,0 l/m 0,0 km/h (0 Bft) W 260 0 min 4,7 C 9,1 C
03.09.2012 05:14 9,0 C 74 % 1023,7 hPa 0,0 l/m 0,0 km/h (0 Bft) W-SW 255 0 min 4,6 C 9,0 C
03.09.2012 05:19 8,9 C 75 % 1023,7 hPa 0,0 l/m 0,0 km/h (0 Bft) W 260 0 min 4,7 C 8,9 C
03.09.2012 05:24 8,9 C 74 % 1023,7 hPa 0,0 l/m 0,0 km/h (0 Bft) W-SW 255 0 min 4,5 C 8,9 C
03.09.2012 05:29 8,8 C 74 % 1023,7 hPa 0,0 l/m 0,0 km/h (0 Bft) W-SW 255 0 min 4,4 C 8,8 C
03.09.2012 05:34 8,7 C 75 % 1023,7 hPa 0,0 l/m 0,0 km/h (0 Bft) W-SW 255 0 min 4,5 C 8,7 C
03.09.2012 05:39 8,7 C 74 % 1023,7 hPa 0,0 l/m 0,0 km/h (0 Bft) W-SW 255 0 min 4,3 C 8,7 C
03.09.2012 05:44 8,6 C 74 % 1023,7 hPa 0,0 l/m 0,0 km/h (0 Bft) W-SW 255 0 min 4,2 C 8,6 C
03.09.2012 05:49 8,5 C 74 % 1023,7 hPa 0,0 l/m 0,0 km/h (0 Bft) W-SW 255 0 min 4,1 C 8,5 C
03.09.2012 05:54 8,5 C 75 % 1023,7 hPa 0,0 l/m 0,0 km/h (0 Bft) W-SW 255 0 min 4,3 C 8,5 C
03.09.2012 05:59 8,5 C 75 % 1023,7 hPa 0,0 l/m 0,0 km/h (0 Bft) W-SW 255 0 min 4,3 C 8,5 C
03.09.2012 06:04 8,5 C 75 % 1023,7 hPa 0,0 l/m 0,0 km/h (0 Bft) W-SW 255 0 min 4,3 C 8,5 C
03.09.2012 06:09 8,6 C 75 % 1023,7 hPa 0,0 l/m 0,0 km/h (0 Bft) W-SW 255 0 min 4,4 C 8,6 C
03.09.2012 06:14 8,6 C 75 % 1024,7 hPa 0,0 l/m 0,0 km/h (0 Bft) W-SW 255 0 min 4,4 C 8,6 C
03.09.2012 06:19 8,5 C 75 % 1024,7 hPa 0,0 l/m 0,0 km/h (0 Bft) W 265 0 min 4,3 C 8,5 C
03.09.2012 06:24 8,5 C 75 % 1024,7 hPa 0,0 l/m 0,0 km/h (0 Bft) W-SW 255 0 min 4,3 C 8,5 C
03.09.2012 06:29 8,5 C 77 % 1024,7 hPa 0,0 l/m 0,0 km/h (0 Bft) W 265 0 min 4,7 C 8,5 C
03.09.2012 06:34 8,5 C 77 % 1024,7 hPa 0,0 l/m 0,0 km/h (0 Bft) W 260 0 min 4,7 C 8,5 C
03.09.2012 06:39 8,5 C 77 % 1024,7 hPa 0,0 l/m 0,0 km/h (0 Bft) W 265 0 min 4,7 C 8,5 C
03.09.2012 06:44 8,4 C 76 % 1024,7 hPa 0,0 l/m 0,0 km/h (0 Bft) W 260 0 min 4,4 C 8,4 C
03.09.2012 06:49 8,4 C 76 % 1024,7 hPa 0,0 l/m 0,0 km/h (0 Bft) W 260 0 min 4,4 C 8,4 C
03.09.2012 06:54 8,4 C 76 % 1024,7 hPa 0,0 l/m 0,0 km/h (0 Bft) W 275 0 min 4,4 C 8,4 C
03.09.2012 06:59 8,4 C 76 % 1024,7 hPa 0,0 l/m 0,0 km/h (0 Bft) W 275 0 min 4,4 C 8,4 C
03.09.2012 07:04 8,5 C 76 % 1024,7 hPa 0,0 l/m 0,0 km/h (0 Bft) W 270 0 min 4,5 C 8,5 C
03.09.2012 07:09 8,6 C 76 % 1024,7 hPa 0,0 l/m 0,0 km/h (0 Bft) W 265 0 min 4,6 C 8,6 C
03.09.2012 07:14 8,6 C 76 % 1024,7 hPa 0,0 l/m 0,0 km/h (0 Bft) W 265 0 min 4,6 C 8,6 C
03.09.2012 07:19 8,8 C 76 % 1024,7 hPa 0,0 l/m 0,0 km/h (0 Bft) W 265 0 min 4,8 C 8,8 C
03.09.2012 07:24 8,8 C 76 % 1024,7 hPa 0,0 l/m 0,0 km/h (0 Bft) W 265 0 min 4,8 C 8,8 C
03.09.2012 07:29 8,9 C 76 % 1024,7 hPa 0,0 l/m 0,0 km/h (0 Bft) W 275 0 min 4,9 C 8,9 C
03.09.2012 07:34 9,6 C 78 % 1024,7 hPa 0,0 l/m 0,0 km/h (0 Bft) NW 305 0 min 6,0 C 9,6 C
03.09.2012 07:39 9,9 C 79 % 1024,7 hPa 0,0 l/m 0,0 km/h (0 Bft) NW 305 0 min 6,4 C 9,9 C
03.09.2012 07:44 11,0 C 79 % 1024,7 hPa 0,0 l/m 0,0 km/h (0 Bft) NW 305 0 min 7,5 C 11,0 C
03.09.2012 07:49 11,9 C 79 % 1024,7 hPa 0,0 l/m 0,0 km/h (0 Bft) NW 305 0 min 8,4 C 11,9 C
03.09.2012 07:54 12,3 C 79 % 1024,7 hPa 0,0 l/m 0,0 km/h (0 Bft) NW 305 0 min 8,8 C 12,3 C
03.09.2012 07:59 12,9 C 78 % 1024,7 hPa 0,0 l/m 0,0 km/h (0 Bft) NW 305 0 min 9,2 C 12,9 C
03.09.2012 08:04 13,2 C 76 % 1024,7 hPa 0,0 l/m 0,0 km/h (0 Bft) NW 305 0 min 9,1 C 13,2 C
03.09.2012 08:09 13,0 C 74 % 1024,7 hPa 0,0 l/m 0,0 km/h (0 Bft) NW 305 0 min 8,5 C 13,0 C
03.09.2012 08:14 12,5 C 73 % 1024,7 hPa 0,0 l/m 0,0 km/h (0 Bft) NW 305 0 min 7,8 C 12,5 C
03.09.2012 08:19 12,4 C 72 % 1024,7 hPa 0,0 l/m 0,0 km/h (0 Bft) NW 305 0 min 7,5 C 12,4 C
03.09.2012 08:23 12,4 C 72 % 1024,7 hPa 0,0 l/m 0,0 km/h (0 Bft) NW 305 0 min 7,5 C 12,4 C
03.09.2012 08:28 12,4 C 72 % 1024,7 hPa 0,0 l/m 0,2 km/h (0 Bft) W-NW 295 0 min 7,5 C 12,4 C
03.09.2012 08:33 12,4 C 72 % 1024,7 hPa 0,0 l/m 0,0 km/h (0 Bft) W 275 0 min 7,5 C 12,4 C
03.09.2012 08:38 12,6 C 72 % 1024,7 hPa 0,0 l/m 0,0 km/h (0 Bft) W 275 0 min 7,7 C 12,6 C
03.09.2012 08:43 12,6 C 72 % 1024,7 hPa 0,0 l/m 0,4 km/h (0 Bft) W 270 0 min 7,7 C 12,6 C
03.09.2012 08:48 12,8 C 72 % 1024,7 hPa 0,0 l/m 0,9 km/h (0 Bft) W 275 0 min 7,9 C 12,8 C
03.09.2012 08:53 13,1 C 71 % 1024,7 hPa 0,0 l/m 0,3 km/h (0 Bft) W 260 0 min 8,0 C 13,1 C
03.09.2012 08:58 13,4 C 71 % 1024,7 hPa 0,0 l/m 0,3 km/h (0 Bft) W-SW 250 0 min 8,3 C 13,4 C
03.09.2012 09:03 13,7 C 71 % 1024,7 hPa 0,0 l/m 0,4 km/h (0 Bft) W 270 0 min 8,5 C 13,7 C
03.09.2012 09:08 14,2 C 70 % 1024,7 hPa 0,0 l/m 0,0 km/h (0 Bft) W-SW 255 0 min 8,8 C 14,2 C
03.09.2012 09:13 14,8 C 70 % 1024,7 hPa 0,0 l/m 0,0 km/h (0 Bft) W-SW 245 0 min 9,4 C 14,8 C
03.09.2012 09:18 15,0 C 69 % 1024,7 hPa 0,0 l/m 0,0 km/h (0 Bft) W-SW 255 0 min 9,4 C 15,0 C
03.09.2012 09:23 15,4 C 69 % 1024,7 hPa 0,0 l/m 0,0 km/h (0 Bft) W 260 0 min 9,7 C 15,4 C
03.09.2012 09:28 15,7 C 68 % 1024,7 hPa 0,0 l/m 0,0 km/h (0 Bft) W-SW 250 0 min 9,8 C 15,7 C
03.09.2012 09:33 15,7 C 68 % 1024,7 hPa 0,0 l/m 0,0 km/h (0 Bft) W 260 0 min 9,8 C 15,7 C
03.09.2012 09:38 16,1 C 67 % 1024,7 hPa 0,0 l/m 0,0 km/h (0 Bft) W-SW 240 0 min 10,0 C 16,1 C
03.09.2012 09:43 16,6 C 67 % 1024,7 hPa 0,0 l/m 0,0 km/h (0 Bft) W-SW 240 0 min 10,4 C 16,6 C
03.09.2012 09:48 16,7 C 67 % 1024,7 hPa 0,0 l/m 0,0 km/h (0 Bft) W-SW 250 0 min 10,5 C 16,7 C
03.09.2012 09:53 16,8 C 66 % 1024,7 hPa 0,0 l/m 0,3 km/h (0 Bft) W-SW 245 0 min 10,4 C 16,8 C
03.09.2012 09:58 16,9 C 65 % 1024,7 hPa 0,0 l/m 0,0 km/h (0 Bft) W-SW 240 0 min 10,3 C 16,9 C
03.09.2012 10:03 16,9 C 65 % 1024,7 hPa 0,0 l/m 0,0 km/h (0 Bft) SW 230 0 min 10,3 C 16,9 C
03.09.2012 10:08 17,4 C 64 % 1024,7 hPa 0,0 l/m 0,1 km/h (0 Bft) SW 225 0 min 10,5 C 17,4 C
03.09.2012 10:13 17,8 C 65 % 1024,7 hPa 0,0 l/m 0,0 km/h (0 Bft) S-SW 205 0 min 11,1 C 17,8 C
03.09.2012 10:18 18,4 C 63 % 1024,7 hPa 0,0 l/m 0,0 km/h (0 Bft) SW 220 0 min 11,2 C 18,4 C
03.09.2012 10:23 18,7 C 64 % 1023,7 hPa 0,0 l/m 0,6 km/h (0 Bft) SW 220 0 min 11,7 C 18,7 C
03.09.2012 10:29 19,1 C 62 % 1023,7 hPa 0,0 l/m 0,3 km/h (0 Bft) W-SW 250 0 min 11,6 C 19,1 C
03.09.2012 10:34 19,7 C 61 % 1023,7 hPa 0,0 l/m 1,3 km/h (1 Bft) SW 230 0 min 12,0 C 19,7 C
03.09.2012 10:39 19,7 C 61 % 1023,7 hPa 0,0 l/m 0,3 km/h (0 Bft) S 170 0 min 12,0 C 19,7 C
03.09.2012 10:44 20,0 C 53 % 1023,7 hPa 0,0 l/m 16,6 km/h (3 Bft) W-SW 255 0 min 10,1 C 16,9 C
03.09.2012 10:49 20,0 C 54 % 1023,7 hPa 0,0 l/m 17,1 km/h (3 Bft) SW 230 0 min 10,4 C 16,8 C
03.09.2012 10:54 20,1 C 53 % 1023,7 hPa 0,0 l/m 14,3 km/h (3 Bft) W-SW 250 0 min 10,2 C 17,5 C
03.09.2012 10:59 20,3 C 51 % 1023,7 hPa 0,0 l/m 16,6 km/h (3 Bft) SW 225 0 min 9,8 C 17,3 C
03.09.2012 11:04 20,4 C 52 % 1023,7 hPa 0,0 l/m 13,3 km/h (3 Bft) W 260 0 min 10,2 C 18,1 C
03.09.2012 11:08 20,5 C 52 % 1023,7 hPa 0,0 l/m 0,1 km/h (0 Bft) SW 230 0 min 10,3 C 20,5 C
03.09.2012 11:13 20,9 C 53 % 1023,7 hPa 0,0 l/m 11,6 km/h (2 Bft) W-SW 245 0 min 11,0 C 19,2 C
03.09.2012 11:19 21,1 C 50 % 1023,7 hPa 0,0 l/m 14,1 km/h (3 Bft) SW 220 0 min 10,3 C 18,8 C
03.09.2012 11:24 21,1 C 50 % 1023,7 hPa 0,0 l/m 11,8 km/h (2 Bft) SW 225 0 min 10,3 C 19,3 C
03.09.2012 11:29 21,1 C 50 % 1023,7 hPa 0,0 l/m 10,4 km/h (2 Bft) S 185 0 min 10,3 C 19,7 C
03.09.2012 11:34 21,5 C 51 % 1023,7 hPa 0,0 l/m 1,5 km/h (1 Bft) SO 140 0 min 10,9 C 21,5 C
03.09.2012 11:39 21,9 C 51 % 1023,7 hPa 0,0 l/m 10,6 km/h (2 Bft) SW 230 0 min 11,3 C 20,6 C
03.09.2012 11:43 22,0 C 50 % 1023,7 hPa 0,0 l/m 1,6 km/h (1 Bft) S-SW 210 0 min 11,1 C 22,0 C
03.09.2012 11:48 22,1 C 48 % 1023,7 hPa 0,0 l/m 10,6 km/h (2 Bft) SW 225 0 min 10,6 C 20,8 C
03.09.2012 11:53 22,2 C 47 % 1023,7 hPa 0,0 l/m 16,3 km/h (3 Bft) W 260 0 min 10,3 C 19,7 C
03.09.2012 11:59 22,1 C 47 % 1023,7 hPa 0,0 l/m 14,0 km/h (3 Bft) S 180 0 min 10,3 C 20,0 C
03.09.2012 12:04 22,4 C 47 % 1023,7 hPa 0,0 l/m 2,1 km/h (1 Bft) S-SW 210 0 min 10,5 C 22,4 C
03.09.2012 12:09 22,3 C 46 % 1023,7 hPa 0,0 l/m 11,0 km/h (2 Bft) S 170 0 min 10,1 C 20,9 C
03.09.2012 12:14 22,5 C 47 % 1023,7 hPa 0,0 l/m 11,0 km/h (2 Bft) W-SW 250 0 min 10,6 C 21,1 C
03.09.2012 12:18 22,6 C 47 % 1023,7 hPa 0,0 l/m 8,9 km/h (2 Bft) S-SW 210 0 min 10,7 C 21,8 C
03.09.2012 12:24 23,0 C 46 % 1023,7 hPa 0,0 l/m 0,3 km/h (0 Bft) SO 140 0 min 10,7 C 23,0 C
03.09.2012 12:29 23,3 C 47 % 1023,7 hPa 0,0 l/m 0,0 km/h (0 Bft) O-SO 115 0 min 11,3 C 23,3 C
03.09.2012 12:34 23,5 C 47 % 1023,7 hPa 0,0 l/m 0,9 km/h (0 Bft) S 185 0 min 11,5 C 23,5 C
03.09.2012 12:39 23,7 C 46 % 1023,7 hPa 0,0 l/m 1,0 km/h (0 Bft) S-SO 160 0 min 11,4 C 23,7 C
03.09.2012 12:44 23,4 C 45 % 1023,7 hPa 0,0 l/m 12,6 km/h (3 Bft) S-SW 205 0 min 10,8 C 21,8 C
03.09.2012 12:49 23,5 C 45 % 1023,7 hPa 0,0 l/m 1,7 km/h (1 Bft) S-SW 210 0 min 10,9 C 23,5 C
03.09.2012 12:54 23,4 C 43 % 1023,7 hPa 0,0 l/m 0,4 km/h (0 Bft) S 190 0 min 10,1 C 23,4 C
03.09.2012 12:59 23,6 C 43 % 1023,7 hPa 0,0 l/m 11,8 km/h (2 Bft) S-SW 205 0 min 10,3 C 22,2 C
03.09.2012 13:04 23,3 C 42 % 1023,7 hPa 0,0 l/m 4,8 km/h (1 Bft) SO 145 0 min 9,7 C 23,3 C
03.09.2012 13:09 23,6 C 43 % 1023,7 hPa 0,0 l/m 15,3 km/h (3 Bft) SW 220 0 min 10,3 C 21,6 C
03.09.2012 13:14 23,6 C 43 % 1023,7 hPa 0,0 l/m 11,0 km/h (2 Bft) SW 215 0 min 10,3 C 22,4 C
03.09.2012 13:19 23,9 C 42 % 1023,7 hPa 0,0 l/m 1,3 km/h (1 Bft) W-SW 240 0 min 10,2 C 23,9 C
03.09.2012 13:24 23,9 C 42 % 1023,7 hPa 0,0 l/m 1,3 km/h (1 Bft) W-SW 240 0 min 10,2 C 23,9 C
03.09.2012 13:29 24,3 C 42 % 1023,7 hPa 0,0 l/m 13,6 km/h (3 Bft) SW 235 0 min 10,6 C 22,7 C
03.09.2012 13:34 24,5 C 42 % 1023,7 hPa 0,0 l/m 14,8 km/h (3 Bft) W-SW 245 0 min 10,7 C 22,7 C
03.09.2012 13:39 24,6 C 42 % 1023,7 hPa 0,0 l/m 0,4 km/h (0 Bft) SW 215 0 min 10,8 C 24,6 C
03.09.2012 13:44 24,7 C 41 % 1023,7 hPa 0,0 l/m 1,5 km/h (1 Bft) N-NW 330 0 min 10,6 C 24,7 C
03.09.2012 13:49 24,7 C 40 % 1023,7 hPa 0,0 l/m 0,2 km/h (0 Bft) SW 225 0 min 10,2 C 24,7 C
03.09.2012 13:54 24,5 C 38 % 1022,7 hPa 0,0 l/m 0,1 km/h (0 Bft) S 190 0 min 9,2 C 24,5 C
03.09.2012 13:59 24,4 C 40 % 1022,7 hPa 0,0 l/m 0,3 km/h (0 Bft) SO 145 0 min 9,9 C 24,4 C
03.09.2012 14:04 24,4 C 40 % 1022,7 hPa 0,0 l/m 2,1 km/h (1 Bft) S 180 0 min 9,9 C 24,4 C
03.09.2012 14:09 25,2 C 40 % 1022,7 hPa 0,0 l/m 8,5 km/h (2 Bft) S 190 0 min 10,6 C 24,7 C
03.09.2012 14:14 25,4 C 40 % 1022,7 hPa 0,0 l/m 0,0 km/h (0 Bft) S 170 0 min 10,8 C 25,4 C
03.09.2012 14:19 25,0 C 37 % 1022,7 hPa 0,0 l/m 1,5 km/h (1 Bft) S 175 0 min 9,3 C 25,0 C
03.09.2012 14:24 24,7 C 38 % 1022,7 hPa 0,0 l/m 18,6 km/h (3 Bft) S-SW 210 0 min 9,4 C 22,4 C
03.09.2012 14:29 24,7 C 38 % 1022,7 hPa 0,0 l/m 16,1 km/h (3 Bft) S 185 0 min 9,4 C 22,8 C
03.09.2012 14:33 24,7 C 38 % 1022,7 hPa 0,0 l/m 1,6 km/h (1 Bft) S-SW 195 0 min 9,4 C 24,7 C
03.09.2012 14:38 25,1 C 37 % 1022,7 hPa 0,0 l/m 20,1 km/h (4 Bft) W-SW 240 0 min 9,4 C 22,8 C
03.09.2012 14:43 25,5 C 38 % 1022,7 hPa 0,0 l/m 14,4 km/h (3 Bft) SW 220 0 min 10,1 C 24,0 C
03.09.2012 14:48 25,9 C 38 % 1022,7 hPa 0,0 l/m 12,6 km/h (3 Bft) W-SW 240 0 min 10,5 C 24,7 C
03.09.2012 14:53 25,9 C 39 % 1022,7 hPa 0,0 l/m 0,1 km/h (0 Bft) S 170 0 min 10,9 C 25,9 C
03.09.2012 14:58 26,1 C 36 % 1022,7 hPa 0,0 l/m 0,2 km/h (0 Bft) SW 225 0 min 9,8 C 26,1 C
03.09.2012 15:03 26,0 C 36 % 1022,7 hPa 0,0 l/m 0,2 km/h (0 Bft) S 180 0 min 9,8 C 26,0 C
03.09.2012 15:08 25,3 C 37 % 1022,7 hPa 0,0 l/m 0,4 km/h (0 Bft) S-SW 210 0 min 9,6 C 25,3 C
03.09.2012 15:13 25,0 C 38 % 1022,7 hPa 0,0 l/m 15,5 km/h (3 Bft) S 180 0 min 9,7 C 23,2 C
03.09.2012 15:18 24,8 C 38 % 1022,7 hPa 0,0 l/m 12,0 km/h (2 Bft) S 190 0 min 9,5 C 23,6 C
03.09.2012 15:23 24,9 C 39 % 1022,7 hPa 0,0 l/m 0,3 km/h (0 Bft) S 175 0 min 10,0 C 24,9 C
03.09.2012 15:28 24,8 C 39 % 1022,7 hPa 0,0 l/m 11,1 km/h (2 Bft) S-SW 210 0 min 9,9 C 23,7 C
03.09.2012 15:33 24,9 C 39 % 1022,7 hPa 0,0 l/m 9,4 km/h (2 Bft) S-SW 205 0 min 10,0 C 24,2 C
03.09.2012 15:38 24,6 C 39 % 1022,7 hPa 0,0 l/m 17,8 km/h (3 Bft) SW 225 0 min 9,7 C 22,4 C
03.09.2012 15:43 24,8 C 40 % 1022,7 hPa 0,0 l/m 12,0 km/h (2 Bft) SW 220 0 min 10,3 C 23,6 C
03.09.2012 15:48 25,5 C 37 % 1021,7 hPa 0,0 l/m 18,5 km/h (3 Bft) SW 235 0 min 9,7 C 23,5 C
03.09.2012 15:53 25,6 C 38 % 1021,7 hPa 0,0 l/m 19,3 km/h (3 Bft) SW 215 0 min 10,2 C 23,5 C
03.09.2012 15:58 25,6 C 38 % 1021,7 hPa 0,0 l/m 11,3 km/h (2 Bft) SW 215 0 min 10,2 C 24,6 C
03.09.2012 16:03 25,4 C 37 % 1021,7 hPa 0,0 l/m 13,0 km/h (3 Bft) S-SW 195 0 min 9,6 C 24,1 C
03.09.2012 16:08 24,7 C 38 % 1021,7 hPa 0,0 l/m 1,6 km/h (1 Bft) S-SW 200 0 min 9,4 C 24,7 C
03.09.2012 16:13 24,7 C 40 % 1021,7 hPa 0,0 l/m 0,6 km/h (0 Bft) S 170 0 min 10,2 C 24,7 C
03.09.2012 16:18 24,6 C 40 % 1021,7 hPa 0,0 l/m 0,3 km/h (0 Bft) SO 145 0 min 10,1 C 24,6 C
03.09.2012 16:23 24,6 C 40 % 1022,7 hPa 0,0 l/m 0,1 km/h (0 Bft) S-SO 160 0 min 10,1 C 24,6 C
03.09.2012 16:28 24,8 C 40 % 1022,7 hPa 0,0 l/m 0,1 km/h (0 Bft) S-SO 160 0 min 10,3 C 24,8 C
03.09.2012 16:34 25,3 C 39 % 1021,7 hPa 0,0 l/m 0,3 km/h (0 Bft) S-SO 160 0 min 10,3 C 25,3 C
03.09.2012 16:39 25,1 C 38 % 1021,7 hPa 0,0 l/m 13,4 km/h (3 Bft) SO 135 0 min 9,8 C 23,7 C
03.09.2012 16:44 24,9 C 40 % 1021,7 hPa 0,0 l/m 0,0 km/h (0 Bft) O 85 0 min 10,4 C 24,9 C
03.09.2012 16:49 25,2 C 40 % 1021,7 hPa 0,0 l/m 0,0 km/h (0 Bft) O-NO 70 0 min 10,6 C 25,2 C
03.09.2012 16:54 25,2 C 40 % 1021,7 hPa 0,0 l/m 0,0 km/h (0 Bft) O-NO 75 0 min 10,6 C 25,2 C
03.09.2012 16:59 25,5 C 40 % 1021,7 hPa 0,0 l/m 0,2 km/h (0 Bft) O 95 0 min 10,9 C 25,5 C
03.09.2012 17:04 25,5 C 38 % 1021,7 hPa 0,0 l/m 0,1 km/h (0 Bft) S 185 0 min 10,1 C 25,5 C
03.09.2012 17:09 25,9 C 39 % 1021,7 hPa 0,0 l/m 0,0 km/h (0 Bft) O 100 0 min 10,9 C 25,9 C
03.09.2012 17:14 25,9 C 39 % 1021,7 hPa 0,0 l/m 0,0 km/h (0 Bft) O-NO 60 0 min 10,9 C 25,9 C
03.09.2012 17:19 24,7 C 39 % 1021,7 hPa 0,0 l/m 0,3 km/h (0 Bft) O-SO 105 0 min 9,8 C 24,7 C
03.09.2012 17:24 24,0 C 40 % 1021,7 hPa 0,0 l/m 0,1 km/h (0 Bft) S-SO 160 0 min 9,6 C 24,0 C
03.09.2012 17:29 23,9 C 41 % 1021,7 hPa 0,0 l/m 0,0 km/h (0 Bft) O-SO 110 0 min 9,8 C 23,9 C
03.09.2012 17:34 23,8 C 41 % 1021,7 hPa 0,0 l/m 0,3 km/h (0 Bft) O-SO 110 0 min 9,7 C 23,8 C
03.09.2012 17:39 23,6 C 41 % 1021,7 hPa 0,0 l/m 0,2 km/h (0 Bft) SO 140 0 min 9,6 C 23,6 C
03.09.2012 17:44 23,8 C 42 % 1021,7 hPa 0,0 l/m 0,2 km/h (0 Bft) S-SO 150 0 min 10,1 C 23,8 C
03.09.2012 17:49 23,8 C 41 % 1021,7 hPa 0,0 l/m 0,3 km/h (0 Bft) S-SO 165 0 min 9,7 C 23,8 C
03.09.2012 17:54 23,4 C 41 % 1021,7 hPa 0,0 l/m 0,1 km/h (0 Bft) O 90 0 min 9,4 C 23,4 C
03.09.2012 17:59 23,2 C 41 % 1021,7 hPa 0,0 l/m 0,4 km/h (0 Bft) SO 130 0 min 9,2 C 23,2 C
03.09.2012 18:04 22,8 C 43 % 1021,7 hPa 0,0 l/m 0,3 km/h (0 Bft) S-SO 160 0 min 9,6 C 22,8 C
03.09.2012 18:09 22,7 C 43 % 1021,7 hPa 0,0 l/m 11,0 km/h (2 Bft) S-SO 165 0 min 9,5 C 21,4 C
03.09.2012 18:14 22,7 C 44 % 1021,7 hPa 0,0 l/m 12,8 km/h (3 Bft) S-SO 160 0 min 9,8 C 21,0 C
03.09.2012 18:19 22,6 C 44 % 1021,7 hPa 0,0 l/m 0,0 km/h (0 Bft) O 100 0 min 9,7 C 22,6 C
03.09.2012 18:24 22,4 C 44 % 1021,7 hPa 0,0 l/m 0,2 km/h (0 Bft) S-SO 155 0 min 9,5 C 22,4 C
03.09.2012 18:29 22,0 C 44 % 1021,7 hPa 0,0 l/m 1,0 km/h (0 Bft) SO 140 0 min 9,2 C 22,0 C
03.09.2012 18:34 21,9 C 46 % 1021,7 hPa 0,0 l/m 0,0 km/h (0 Bft) O 95 0 min 9,7 C 21,9 C
03.09.2012 18:39 21,7 C 46 % 1021,7 hPa 0,0 l/m 0,0 km/h (0 Bft) O-SO 120 0 min 9,6 C 21,7 C
03.09.2012 18:44 21,5 C 47 % 1021,7 hPa 0,0 l/m 0,0 km/h (0 Bft) O 95 0 min 9,7 C 21,5 C
03.09.2012 18:49 21,5 C 47 % 1021,7 hPa 0,0 l/m 0,0 km/h (0 Bft) O 95 0 min 9,7 C 21,5 C
03.09.2012 18:54 21,5 C 47 % 1021,7 hPa 0,0 l/m 0,0 km/h (0 Bft) O 95 0 min 9,7 C 21,5 C
03.09.2012 18:59 21,3 C 48 % 1021,7 hPa 0,0 l/m 0,0 km/h (0 Bft) O-SO 110 0 min 9,8 C 21,3 C
03.09.2012 19:04 21,0 C 49 % 1021,7 hPa 0,0 l/m 0,0 km/h (0 Bft) O-SO 105 0 min 9,9 C 21,0 C
03.09.2012 19:09 20,8 C 50 % 1021,7 hPa 0,0 l/m 0,0 km/h (0 Bft) O-SO 110 0 min 10,0 C 20,8 C
03.09.2012 19:14 20,5 C 51 % 1021,7 hPa 0,0 l/m 0,0 km/h (0 Bft) NO 50 0 min 10,0 C 20,5 C
03.09.2012 19:19 20,2 C 52 % 1021,7 hPa 0,0 l/m 0,0 km/h (0 Bft) N-NO 15 0 min 10,0 C 20,2 C
03.09.2012 19:24 20,1 C 52 % 1022,7 hPa 0,0 l/m 0,0 km/h (0 Bft) NO 55 0 min 9,9 C 20,1 C
03.09.2012 19:29 19,8 C 53 % 1022,7 hPa 0,0 l/m 0,2 km/h (0 Bft) O 90 0 min 9,9 C 19,8 C
03.09.2012 19:34 19,5 C 54 % 1022,7 hPa 0,0 l/m 0,2 km/h (0 Bft) O 90 0 min 9,9 C 19,5 C
03.09.2012 19:39 19,5 C 55 % 1022,7 hPa 0,0 l/m 0,1 km/h (0 Bft) NO 35 0 min 10,2 C 19,5 C
03.09.2012 19:44 19,1 C 55 % 1022,7 hPa 0,0 l/m 0,2 km/h (0 Bft) O 90 0 min 9,8 C 19,1 C
03.09.2012 19:49 18,9 C 56 % 1022,7 hPa 0,0 l/m 0,1 km/h (0 Bft) O-NO 75 0 min 9,9 C 18,9 C
03.09.2012 19:54 18,8 C 56 % 1022,7 hPa 0,0 l/m 0,0 km/h (0 Bft) O-NO 70 0 min 9,8 C 18,8 C
03.09.2012 19:59 18,5 C 56 % 1022,7 hPa 0,0 l/m 0,1 km/h (0 Bft) O-SO 105 0 min 9,6 C 18,5 C
03.09.2012 20:04 18,3 C 57 % 1022,7 hPa 0,0 l/m 0,0 km/h (0 Bft) O 95 0 min 9,6 C 18,3 C
03.09.2012 20:09 18,1 C 58 % 1022,7 hPa 0,0 l/m 0,0 km/h (0 Bft) O 100 0 min 9,7 C 18,1 C
03.09.2012 20:14 18,0 C 60 % 1022,7 hPa 0,0 l/m 0,0 km/h (0 Bft) S-SO 160 0 min 10,1 C 18,0 C
03.09.2012 20:19 17,9 C 61 % 1022,7 hPa 0,0 l/m 1,0 km/h (0 Bft) S 170 0 min 10,3 C 17,9 C
03.09.2012 20:24 17,8 C 62 % 1022,7 hPa 0,0 l/m 0,6 km/h (0 Bft) SO 130 0 min 10,4 C 17,8 C
03.09.2012 20:29 17,7 C 62 % 1022,7 hPa 0,0 l/m 0,1 km/h (0 Bft) S-SO 160 0 min 10,3 C 17,7 C
03.09.2012 20:34 17,5 C 63 % 1022,7 hPa 0,0 l/m 0,1 km/h (0 Bft) O-SO 105 0 min 10,4 C 17,5 C
03.09.2012 20:39 17,3 C 63 % 1022,7 hPa 0,0 l/m 0,3 km/h (0 Bft) SO 125 0 min 10,2 C 17,3 C
03.09.2012 20:44 17,2 C 64 % 1022,7 hPa 0,0 l/m 0,7 km/h (0 Bft) S-SO 150 0 min 10,3 C 17,2 C
03.09.2012 20:49 17,1 C 63 % 1022,7 hPa 0,0 l/m 0,1 km/h (0 Bft) SO 145 0 min 10,0 C 17,1 C
03.09.2012 20:54 17,0 C 63 % 1023,7 hPa 0,0 l/m 0,1 km/h (0 Bft) SO 145 0 min 9,9 C 17,0 C
03.09.2012 20:59 16,9 C 64 % 1023,7 hPa 0,0 l/m 0,1 km/h (0 Bft) SO 130 0 min 10,0 C 16,9 C
03.09.2012 21:03 16,8 C 65 % 1023,7 hPa 0,0 l/m 0,1 km/h (0 Bft) O-SO 110 0 min 10,2 C 16,8 C
03.09.2012 21:08 16,6 C 65 % 1023,7 hPa 0,0 l/m 0,1 km/h (0 Bft) O 90 0 min 10,0 C 16,6 C
03.09.2012 21:13 16,5 C 64 % 1023,7 hPa 0,0 l/m 0,1 km/h (0 Bft) O-NO 65 0 min 9,7 C 16,5 C
03.09.2012 21:18 16,4 C 64 % 1023,7 hPa 0,0 l/m 0,0 km/h (0 Bft) O 95 0 min 9,6 C 16,4 C
03.09.2012 21:23 16,2 C 63 % 1023,7 hPa 0,0 l/m 0,0 km/h (0 Bft) O 95 0 min 9,1 C 16,2 C
03.09.2012 21:28 15,9 C 63 % 1023,7 hPa 0,0 l/m 0,0 km/h (0 Bft) O 90 0 min 8,9 C 15,9 C
03.09.2012 21:33 15,8 C 63 % 1023,7 hPa 0,0 l/m 0,0 km/h (0 Bft) O 95 0 min 8,8 C 15,8 C
03.09.2012 21:38 15,6 C 63 % 1023,7 hPa 0,0 l/m 0,0 km/h (0 Bft) O 90 0 min 8,6 C 15,6 C
03.09.2012 21:43 15,3 C 63 % 1023,7 hPa 0,0 l/m 0,0 km/h (0 Bft) O 90 0 min 8,3 C 15,3 C
03.09.2012 21:48 15,3 C 63 % 1023,7 hPa 0,0 l/m 0,0 km/h (0 Bft) O 90 0 min 8,3 C 15,3 C
03.09.2012 21:53 15,1 C 63 % 1023,7 hPa 0,0 l/m 0,0 km/h (0 Bft) O 90 0 min 8,1 C 15,1 C
03.09.2012 21:58 14,8 C 63 % 1023,7 hPa 0,0 l/m 0,0 km/h (0 Bft) O 90 0 min 7,8 C 14,8 C
03.09.2012 22:03 14,7 C 63 % 1023,7 hPa 0,0 l/m 0,0 km/h (0 Bft) O 90 0 min 7,7 C 14,7 C
03.09.2012 22:08 14,6 C 64 % 1023,7 hPa 0,0 l/m 0,0 km/h (0 Bft) O 90 0 min 7,9 C 14,6 C
03.09.2012 22:13 14,4 C 64 % 1023,7 hPa 0,0 l/m 0,0 km/h (0 Bft) O 90 0 min 7,7 C 14,4 C
03.09.2012 22:18 14,3 C 64 % 1023,7 hPa 0,0 l/m 0,0 km/h (0 Bft) O 90 0 min 7,6 C 14,3 C
03.09.2012 22:23 14,2 C 64 % 1023,7 hPa 0,0 l/m 0,0 km/h (0 Bft) O 90 0 min 7,5 C 14,2 C
03.09.2012 22:28 14,1 C 64 % 1023,7 hPa 0,0 l/m 0,0 km/h (0 Bft) O 90 0 min 7,4 C 14,1 C
03.09.2012 22:33 14,0 C 64 % 1023,7 hPa 0,0 l/m 0,0 km/h (0 Bft) O 90 0 min 7,3 C 14,0 C
03.09.2012 22:38 13,9 C 65 % 1023,7 hPa 0,0 l/m 0,0 km/h (0 Bft) O 85 0 min 7,4 C 13,9 C
03.09.2012 22:43 13,7 C 65 % 1023,7 hPa 0,0 l/m 0,0 km/h (0 Bft) O 85 0 min 7,2 C 13,7 C
03.09.2012 22:48 13,7 C 65 % 1023,7 hPa 0,0 l/m 0,0 km/h (0 Bft) O 85 0 min 7,2 C 13,7 C
03.09.2012 22:54 13,6 C 65 % 1023,7 hPa 0,0 l/m 0,0 km/h (0 Bft) O 85 0 min 7,1 C 13,6 C
03.09.2012 22:59 13,5 C 65 % 1023,7 hPa 0,0 l/m 0,0 km/h (0 Bft) O 85 0 min 7,1 C 13,5 C
03.09.2012 23:04 13,4 C 65 % 1023,7 hPa 0,0 l/m 0,0 km/h (0 Bft) O 85 0 min 7,0 C 13,4 C
03.09.2012 23:09 13,4 C 65 % 1023,7 hPa 0,0 l/m 0,0 km/h (0 Bft) O 85 0 min 7,0 C 13,4 C
03.09.2012 23:14 13,4 C 65 % 1023,7 hPa 0,0 l/m 0,0 km/h (0 Bft) O 85 0 min 7,0 C 13,4 C
03.09.2012 23:19 13,2 C 66 % 1023,7 hPa 0,0 l/m 0,0 km/h (0 Bft) O 85 0 min 7,0 C 13,2 C
03.09.2012 23:24 13,1 C 65 % 1023,7 hPa 0,0 l/m 0,0 km/h (0 Bft) O 85 0 min 6,7 C 13,1 C
03.09.2012 23:29 13,1 C 66 % 1023,7 hPa 0,0 l/m 0,0 km/h (0 Bft) O 85 0 min 6,9 C 13,1 C
03.09.2012 23:34 12,9 C 67 % 1023,7 hPa 0,0 l/m 0,0 km/h (0 Bft) O 85 0 min 6,9 C 12,9 C
03.09.2012 23:39 12,9 C 67 % 1023,7 hPa 0,0 l/m 0,0 km/h (0 Bft) O 85 0 min 6,9 C 12,9 C
03.09.2012 23:44 12,8 C 67 % 1023,7 hPa 0,0 l/m 0,0 km/h (0 Bft) O 85 0 min 6,8 C 12,8 C
03.09.2012 23:49 12,7 C 67 % 1023,7 hPa 0,0 l/m 0,0 km/h (0 Bft) O 85 0 min 6,7 C 12,7 C
03.09.2012 23:54 12,6 C 67 % 1023,7 hPa 0,0 l/m 0,0 km/h (0 Bft) O 85 0 min 6,6 C 12,6 C
03.09.2012 23:59 12,4 C 67 % 1023,7 hPa 0,0 l/m 0,0 km/h (0 Bft) O 85 0 min 6,4 C 12,4 C
_ Min-Zeit 00:03 14:58 15:48 - 00:03 - - - 05:49 06:44
Minimum _ 0,0 C 36 % 1021,7 hPa - 0,0 km/h (0 Bft) - - - 4,1 C 8,4 C
_ Max-Zeit 14:58 07:39 00:03 00:03 14:38 - - 00:03 10:34 14:58
Maximum _ 26,1 C 79 % 1024,7 hPa 0,0 l/m 20,1 km/h
W-SW (4 Bft)
- - 0 min 12,0 C 26,1 C
Durchschnitt _ 16,6 C 60 % 1023,6 hPa #0,0 l/m 2,2 km/h (1 Bft) SW - #0 min. 8,2 C 16,4 C